Accueil
METAR-TAF:

METAR-TAF

Aéroports :

Key West, Floride, États-Unis

latitude: 24-33-13N, longitude: 081-45-13W, altitude: 1 m

Observation

Le bulletin a été fait il y a 49 minutes, à 07:53 UTC
Vent 5 kt de est/nord-est
Température 28°C
Humidité 79%
Pression 1017 hPa
Visibilité: 16.1 km
Quelques nuages à une hauteur de 1900 ft

METAR: KEYW 290753Z AUTO 07005KT 10SM FEW019 28/24 A3004 RMK AO2 LTG DSNT SE AND NW SLP171 T02830239

Heure: 04:42 (08:42 UTC)

Prévision

Le bulletin a été fait il y a 1 heure et 25 minutes, à 07:17 UTC
Prévision valable du 29 à 07 UTC au 30 à 06 UTC
Vent 9 kt de est
Visibilité: 10 km
Nuages épars à une hauteur de 1800 ft
Temporairement
du 29 à 07 UTC au 29 à 10 UTC
Visibilité: 2.4 km
Nuages épars à une hauteur de 1800 ft, Cumulonimbus.
Nuages fragmentés à une hauteur de 2500 ft
orage, forte pluie, brume

TAF: KEYW 290717Z 2907/3006 10009KT P6SM SCT018 TEMPO 2907/2910 1 1/2SM +TSRA BR SCT018CB BKN025

Observations et prévisions météorologiques de plus de 4000 aéroports (messages METAR et TAF).

Les stations disponibles sont représentées par des disques jaunes et rouges sur la carte.

Passer la souris dessus pour voir le nom de la station.

Cliquer dessus pour voir les observations et prévisions météorologiques.

Pour changer de carte: cliquez sur les boutons verts avec une croix noire pour zoomer, sur le bouton vert avec un tiret pour effectuer un zoom arrière, ou sur les flèches vertes pour les cartes adjacentes.


METAR-TAF: